^^
Grace C. Lehan Memorial Weather Station Historical Data
Daily Summary for June 11, 2021 Units:  English    Metric   Both
Daily Weekly Monthly Yearly
  High: Low: Average:
Temperature: 80.6 °F 67.5 °F 72.6 °F
Dew Point: 71.4 °F 64.5 °F 68 °F
Humidity: 93% 72% 86%
Wind Speed: 2.5mph 0mph 0.1mph
Wind Gust: 10mph - -
Wind- - South
Pressure: 30.09 in 30.02 in -
Precipitation: 0.00 in    
 
 
Tabular Data for June 11, 2021
Time Temperature Dew Point Pressure Wind Wind Speed Wind Gust Humidity Rainfall Rate (Hourly) solar
00:00 70.4 °F 67.7 °F 30.02 in Calm     91% 0.00 in 0 W/m2
00:09 70.3 °F 67.6 °F 30.02 in Calm     91% 0.00 in 0 W/m2
00:14 70.3 °F 67.5 °F 30.02 in Calm     91% 0.00 in 0 W/m2
00:19 70.2 °F 67.5 °F 30.02 in Calm     91.3% 0.00 in 0 W/m2
00:24 70.2 °F 67.8 °F 30.02 in Calm     92% 0.00 in 0 W/m2
00:29 70.1 °F 67.7 °F 30.02 in Calm     92% 0.00 in 0 W/m2
00:34 70 °F 67.6 °F 30.03 in Calm     92% 0.00 in 0 W/m2
00:39 70 °F 67.5 °F 30.03 in Calm     92% 0.00 in 0 W/m2
00:44 69.9 °F 67.5 °F 30.03 in Calm     92% 0.00 in 0 W/m2
00:48 70 °F 67.5 °F 30.03 in Calm     92% 0.00 in 0 W/m2
00:54 70 °F 67.6 °F 30.04 in Calm     92% 0.00 in 0 W/m2
00:59 70 °F 67.6 °F 30.04 in Calm     92% 0.00 in 0 W/m2
01:04 70 °F 67.7 °F 30.04 in ENE 0.1 mph 2 mph 92.5% 0.00 in 0 W/m2
01:09 69.9 °F 67.5 °F 30.04 in Calm   2 mph 92% 0.00 in 0 W/m2
01:14 69.9 °F 67.5 °F 30.04 in Calm   2 mph 92% 0.00 in 0 W/m2
01:19 69.9 °F 67.5 °F 30.04 in Calm   2 mph 92% 0.00 in 0 W/m2
01:24 69.9 °F 67.5 °F 30.04 in Calm   2 mph 92% 0.00 in 0 W/m2
01:29 70 °F 67.6 °F 30.04 in Calm   2 mph 92% 0.00 in 0 W/m2
01:34 70 °F 67.6 °F 30.04 in Calm   2 mph 92% 0.00 in 0 W/m2
01:39 70 °F 67.6 °F 30.03 in Calm     92% 0.00 in 0 W/m2
01:44 69.9 °F 67.5 °F 30.04 in Calm     92% 0.00 in 0 W/m2
01:49 69.9 °F 67.5 °F 30.04 in Calm     92% 0.00 in 0 W/m2
01:54 69.9 °F 67.4 °F 30.04 in Calm     92% 0.00 in 0 W/m2
01:59 69.8 °F 67.4 °F 30.04 in Calm     92% 0.00 in 0 W/m2
02:04 69.7 °F 67.3 °F 30.04 in Calm     92% 0.00 in 0 W/m2
02:09 69.7 °F 67.3 °F 30.04 in Calm     92% 0.00 in 0 W/m2
02:14 69.6 °F 67.2 °F 30.04 in Calm     92% 0.00 in 0 W/m2
02:19 69.6 °F 67.2 °F 30.04 in Calm     92% 0.00 in 0 W/m2
02:24 69.5 °F 67.1 °F 30.04 in Calm     92% 0.00 in 0 W/m2
02:29 69.5 °F 67.1 °F 30.04 in Calm     92.1% 0.00 in 0 W/m2
02:34 69.5 °F 67.3 °F 30.04 in Calm     93% 0.00 in 0 W/m2
02:39 69.4 °F 67.3 °F 30.04 in Calm     93% 0.00 in 0 W/m2
02:44 69.4 °F 67.3 °F 30.04 in Calm     93% 0.00 in 0 W/m2
02:49 69.4 °F 67.3 °F 30.04 in Calm     93% 0.00 in 0 W/m2
02:54 69.4 °F 67.3 °F 30.04 in Calm     93% 0.00 in 0 W/m2
02:59 69.4 °F 67.3 °F 30.04 in Calm     93% 0.00 in 0 W/m2
03:04 69.4 °F 67.3 °F 30.04 in Calm     93% 0.00 in 0 W/m2
03:09 69.4 °F 67.3 °F 30.04 in Calm     93% 0.00 in 0 W/m2
03:14 69.4 °F 67.3 °F 30.04 in Calm     93% 0.00 in 0 W/m2
03:19 69.4 °F 67.3 °F 30.04 in Calm     93% 0.00 in 0 W/m2
03:24 69.4 °F 67.3 °F 30.04 in Calm     93% 0.00 in 0 W/m2
03:29 69.4 °F 67.3 °F 30.04 in Calm     93% 0.00 in 0 W/m2
03:34 69.4 °F 67.3 °F 30.04 in Calm     93% 0.00 in 0 W/m2
03:39 69.3 °F 67.2 °F 30.04 in Calm     93% 0.00 in 0 W/m2
03:44 69.3 °F 67.2 °F 30.04 in Calm     93% 0.00 in 0 W/m2
03:49 69.3 °F 67.2 °F 30.04 in Calm     93% 0.00 in 0 W/m2
03:54 69.3 °F 67.2 °F 30.04 in Calm     93% 0.00 in 0 W/m2
03:58 69.3 °F 67.2 °F 30.04 in Calm     93% 0.00 in 0 W/m2
04:00 69.3 °F 67.2 °F 30.04 in Calm     93% 0.00 in 0 W/m2
04:09 69.3 °F 67.2 °F 30.04 in Calm     93% 0.00 in 0 W/m2
04:14 69.3 °F 67.1 °F 30.04 in Calm     92.7% 0.00 in 0 W/m2
04:19 69.3 °F 67 °F 30.04 in Calm     92.5% 0.00 in 0 W/m2
04:24 69.3 °F 66.8 °F 30.04 in Calm     92% 0.00 in 0 W/m2
04:29 69.2 °F 66.8 °F 30.05 in Calm     92% 0.00 in 0 W/m2
04:34 69.2 °F 66.8 °F 30.05 in Calm     92% 0.00 in 0 W/m2
04:39 69.2 °F 66.8 °F 30.05 in Calm     92% 0.00 in 0 W/m2
04:44 69.2 °F 66.8 °F 30.05 in Calm     92% 0.00 in 0 W/m2
04:49 69.2 °F 66.8 °F 30.05 in Calm     92% 0.00 in 0 W/m2
04:54 69.2 °F 66.8 °F 30.05 in Calm     92% 0.00 in 0 W/m2
04:59 69.2 °F 66.8 °F 30.05 in Calm     92% 0.00 in 0 W/m2
05:04 69.1 °F 66.7 °F 30.05 in Calm     92% 0.00 in 0 W/m2
05:09 69.1 °F 66.6 °F 30.05 in Calm     92% 0.00 in 0 W/m2
05:14 69 °F 66.6 °F 30.05 in Calm     92% 0.00 in 0 W/m2
05:19 69 °F 66.6 °F 30.05 in Calm     92% 0.00 in 0 W/m2
05:24 69 °F 66.5 °F 30.05 in Calm     92% 0.00 in 0 W/m2
05:29 68.9 °F 66.5 °F 30.05 in Calm     92% 0.00 in 5 W/m2
05:34 68.9 °F 66.5 °F 30.05 in Calm     92% 0.00 in 7 W/m2
05:39 68.9 °F 66.6 °F 30.06 in Calm     92.4% 0.00 in 12 W/m2
05:44 68.9 °F 66.8 °F 30.06 in Calm     93% 0.00 in 14 W/m2
05:49 68.9 °F 66.8 °F 30.07 in Calm     93% 0.00 in 14 W/m2
05:54 68.9 °F 66.8 °F 30.07 in Calm     93% 0.00 in 19 W/m2
05:59 68.9 °F 66.8 °F 30.07 in Calm     93% 0.00 in 21 W/m2
06:04 69 °F 66.9 °F 30.07 in Calm     93% 0.00 in 21 W/m2
06:09 69 °F 66.9 °F 30.07 in Calm     93% 0.00 in 28 W/m2
06:14 69 °F 66.9 °F 30.07 in Calm     93% 0.00 in 32 W/m2
06:19 69.1 °F 67 °F 30.07 in Calm     93% 0.00 in 30 W/m2
06:24 69.2 °F 67.1 °F 30.07 in Calm     93% 0.00 in 37 W/m2
06:29 69.2 °F 67.1 °F 30.07 in Calm     93% 0.00 in 39 W/m2
06:34 69.3 °F 67.2 °F 30.07 in Calm     93% 0.00 in 51 W/m2
06:39 69.4 °F 67.3 °F 30.07 in Calm     93% 0.00 in 60 W/m2
06:44 69.4 °F 67.3 °F 30.07 in Calm     93% 0.00 in 58 W/m2
06:49 69.5 °F 67.4 °F 30.07 in Calm     93% 0.00 in 53 W/m2
06:54 69.5 °F 67.4 °F 30.08 in Calm     93% 0.00 in 53 W/m2
06:59 69.6 °F 67.5 °F 30.08 in Calm     93% 0.00 in 54 W/m2
07:04 69.7 °F 67.3 °F 30.08 in Calm     92.1% 0.00 in 60 W/m2
07:09 69.8 °F 67.6 °F 30.08 in Calm     92.6% 0.00 in 67 W/m2
07:14 69.9 °F 67.8 °F 30.08 in Calm     93% 0.00 in 76 W/m2
07:19 70.1 °F 68 °F 30.09 in Calm     93% 0.00 in 88 W/m2
07:24 70.2 °F 68.1 °F 30.08 in Calm     93% 0.00 in 100 W/m2
07:29 70.3 °F 67.9 °F 30.09 in Calm     92% 0.00 in 104 W/m2
07:34 70.5 °F 68 °F 30.09 in Calm     92% 0.00 in 102 W/m2
07:39 70.7 °F 68.4 °F 30.09 in Calm     92.3% 0.00 in 90 W/m2
07:44 70.8 °F 68.4 °F 30.08 in Calm     92% 0.00 in 104 W/m2
07:49 71 °F 68.5 °F 30.08 in Calm     92% 0.00 in 107 W/m2
07:54 71.1 °F 68.6 °F 30.09 in Calm     92% 0.00 in 90 W/m2
07:59 71.2 °F 68.4 °F 30.08 in Calm     91% 0.00 in 97 W/m2
08:00 71.2 °F 68.4 °F 30.08 in Calm     91% 0.00 in 91 W/m2
08:09 71.3 °F 68.3 °F 30.08 in Calm     90.1% 0.00 in 88 W/m2
08:14 71.4 °F 68.5 °F 30.08 in Calm     90.4% 0.00 in 81 W/m2
08:19 71.5 °F 68.4 °F 30.09 in Calm     90% 0.00 in 74 W/m2
08:24 71.5 °F 68.4 °F 30.09 in Calm     90% 0.00 in 91 W/m2
08:29 71.6 °F 68.5 °F 30.08 in Calm   1 mph 90% 0.00 in 76 W/m2
08:34 71.6 °F 68.5 °F 30.08 in Calm   1 mph 90% 0.00 in 74 W/m2
08:39 71.6 °F 68.5 °F 30.08 in Calm     90% 0.00 in 95 W/m2
08:44 71.6 °F 68.5 °F 30.09 in Calm     90% 0.00 in 163 W/m2
08:49 71.7 °F 68.6 °F 30.09 in Calm     90% 0.00 in 185 W/m2
08:54 71.9 °F 68.8 °F 30.08 in Calm     90% 0.00 in 146 W/m2
08:59 72 °F 68.9 °F 30.09 in Calm     90% 0.00 in 121 W/m2
09:04 72.1 °F 68.8 °F 30.09 in Calm     89.4% 0.00 in 141 W/m2
09:09 72.2 °F 68.8 °F 30.08 in Calm     89% 0.00 in 146 W/m2
09:14 72.4 °F 69 °F 30.08 in Calm     89% 0.00 in 132 W/m2
09:19 72.5 °F 69.1 °F 30.08 in Calm     89% 0.00 in 148 W/m2
09:24 72.7 °F 69.2 °F 30.08 in Calm     89% 0.00 in 158 W/m2
09:29 72.8 °F 69.4 °F 30.08 in Calm     89% 0.00 in 158 W/m2
09:34 73 °F 69.4 °F 30.08 in Calm     88.6% 0.00 in 174 W/m2
09:39 73.1 °F 69.4 °F 30.08 in Calm     88% 0.00 in 197 W/m2
09:44 73.4 °F 69.8 °F 30.08 in Calm     88.7% 0.00 in 211 W/m2
09:49 73.6 °F 69.8 °F 30.08 in Calm     88% 0.00 in 218 W/m2
09:54 73.8 °F 69.7 °F 30.08 in Calm   1 mph 87% 0.00 in 218 W/m2
09:59 73.9 °F 69.6 °F 30.08 in Calm   1 mph 86.2% 0.00 in 199 W/m2
10:04 74 °F 69.6 °F 30.08 in Calm   1 mph 86% 0.00 in 178 W/m2
10:08 74.2 °F 69.8 °F 30.08 in Calm     86% 0.00 in 195 W/m2
10:24 74.6 °F 69.4 °F 30.08 in ENE 0.4 mph 3 mph 84% 0.00 in 183 W/m2
10:29 74.6 °F 69.4 °F 30.08 in Calm   3 mph 83.9% 0.00 in 199 W/m2
10:34 74.6 °F 69.5 °F 30.08 in Calm   3 mph 84% 0.00 in 195 W/m2
10:39 74.7 °F 69.7 °F 30.08 in Calm   1 mph 84.3% 0.00 in 144 W/m2
10:44 74.8 °F 69.5 °F 30.08 in Calm   1 mph 83.4% 0.00 in 158 W/m2
10:49 74.9 °F 69.4 °F 30.08 in Calm   1 mph 83% 0.00 in 171 W/m2
10:54 75 °F 69.6 °F 30.08 in Calm   1 mph 83.5% 0.00 in 171 W/m2
10:59 75 °F 69.6 °F 30.08 in Calm   1 mph 83.4% 0.00 in 169 W/m2
11:04 75 °F 69.5 °F 30.08 in Calm   1 mph 83% 0.00 in 229 W/m2
11:09 75 °F 69.7 °F 30.08 in Calm     83.4% 0.00 in 243 W/m2
11:14 75.2 °F 70 °F 30.08 in ENE 0.1 mph 2 mph 83.9% 0.00 in 220 W/m2
11:19 75.4 °F 70.1 °F 30.08 in Calm   2 mph 83.6% 0.00 in 225 W/m2
11:24 75.6 °F 70.3 °F 30.08 in Calm   2 mph 83.7% 0.00 in 218 W/m2
11:29 75.8 °F 70.4 °F 30.08 in Calm   2 mph 83.2% 0.00 in 457 W/m2
11:34 76.1 °F 70.9 °F 30.08 in ENE 0.1 mph 3 mph 84% 0.00 in 979 W/m2
11:39 76.7 °F 71.1 °F 30.08 in Calm   3 mph 82.8% 0.00 in 979 W/m2
11:44 77.3 °F 70.5 °F 30.09 in Calm   3 mph 79.8% 0.00 in 436 W/m2
11:49 77.4 °F 70.4 °F 30.09 in Calm   3 mph 79% 0.00 in 345 W/m2
11:54 77.4 °F 70.2 °F 30.09 in East 0.4 mph 3 mph 78.4% 0.00 in 404 W/m2
11:59 77.6 °F 70.8 °F 30.09 in Calm   3 mph 79.6% 0.00 in 622 W/m2
12:00 77.8 °F 70.8 °F 30.09 in Calm   3 mph 79% 0.00 in 622 W/m2
12:09 78.4 °F 70.9 °F 30.08 in Calm     77.8% 0.00 in 450 W/m2
12:14 78.6 °F 70.6 °F 30.09 in Calm   1 mph 76.4% 0.00 in 501 W/m2
12:19 78.9 °F 71.1 °F 30.08 in SW 0.1 mph 2 mph 76.9% 0.00 in 452 W/m2
12:24 79.2 °F 71.1 °F 30.08 in SW 0.1 mph 2 mph 76.5% 0.00 in 404 W/m2
12:29 79.2 °F 70.6 °F 30.08 in SW 0.1 mph 2 mph 75.2% 0.00 in 406 W/m2
12:34 79.1 °F 70.9 °F 30.08 in SW 0.1 mph 2 mph 76% 0.00 in 406 W/m2
12:39 79.3 °F 71.3 °F 30.08 in Calm   2 mph 76.7% 0.00 in 302 W/m2
12:44 79.3 °F 70.6 °F 30.09 in SW 0.1 mph 2 mph 74.7% 0.00 in 431 W/m2
12:49 79.4 °F 71.2 °F 30.08 in Calm   2 mph 76% 0.00 in 524 W/m2
12:54 79.7 °F 70.8 °F 30.09 in Calm   2 mph 74.4% 0.00 in 547 W/m2
12:59 80 °F 70.7 °F 30.08 in Calm   2 mph 73.4% 0.00 in 575 W/m2
13:04 80.3 °F 71.3 °F 30.08 in Calm   2 mph 74.2% 0.00 in 499 W/m2
13:09 80.5 °F 71.4 °F 30.08 in SSW 0.1 mph 2 mph 74% 0.00 in 362 W/m2
13:14 80.6 °F 71.1 °F 30.08 in Calm   2 mph 73% 0.00 in 288 W/m2
13:19 80.5 °F 70.9 °F 30.08 in Calm   2 mph 72.8% 0.00 in 357 W/m2
13:24 80.3 °F 71.1 °F 30.08 in WSW 0.2 mph 3 mph 73.5% 0.00 in 334 W/m2
13:29 80.2 °F 70.8 °F 30.08 in SW 0.1 mph 3 mph 73% 0.00 in 413 W/m2
13:34 79.9 °F 70.1 °F 30.08 in SW 0.3 mph 3 mph 72% 0.00 in 255 W/m2
13:39 79.5 °F 70 °F 30.08 in SW 0.2 mph 3 mph 72.8% 0.00 in 362 W/m2
13:44 79.2 °F 69.9 °F 30.08 in Calm   3 mph 73.2% 0.00 in 394 W/m2
13:49 78.9 °F 69.5 °F 30.08 in Calm   3 mph 73% 0.00 in 485 W/m2
13:54 78.7 °F 69.6 °F 30.08 in SSW 0.6 mph 9 mph 73.8% 0.00 in 485 W/m2
13:59 78.7 °F 69.9 °F 30.07 in South 0.2 mph 9 mph 74.6% 0.00 in 357 W/m2
14:04 78.7 °F 70.1 °F 30.07 in South 0.5 mph 9 mph 74.9% 0.00 in 218 W/m2
14:09 78.5 °F 69.5 °F 30.07 in South 0.1 mph 4 mph 74% 0.00 in 267 W/m2
14:14 78.4 °F 69.5 °F 30.07 in South 0.6 mph 4 mph 74.3% 0.00 in 281 W/m2
14:19 78.3 °F 69.8 °F 30.07 in South 0.2 mph 4 mph 75.1% 0.00 in 283 W/m2
14:24 78.3 °F 69.9 °F 30.07 in SW 0.3 mph 4 mph 75.3% 0.00 in 336 W/m2
14:29 78.4 °F 69.8 °F 30.07 in WSW 0.5 mph 6 mph 75% 0.00 in 336 W/m2
14:34 78.4 °F 69.8 °F 30.07 in Calm   6 mph 75% 0.00 in 269 W/m2
14:39 78.3 °F 69.8 °F 30.07 in Calm   2 mph 75.2% 0.00 in 309 W/m2
14:44 78.4 °F 69.9 °F 30.07 in WSW 0.5 mph 3 mph 75.4% 0.00 in 285 W/m2
14:49 78.4 °F 70 °F 30.07 in WSW 0.3 mph 3 mph 75.3% 0.00 in 265 W/m2
14:54 78.4 °F 69.9 °F 30.07 in West 0.5 mph 7 mph 75.2% 0.00 in 306 W/m2
14:59 78.4 °F 70.2 °F 30.06 in WSW 0.1 mph 7 mph 76% 0.00 in 359 W/m2
15:04 78.5 °F 70.3 °F 30.07 in WSW 0.1 mph 7 mph 76.1% 0.00 in 229 W/m2
15:09 78.5 °F 70.4 °F 30.07 in WSW 0.4 mph 6 mph 76.2% 0.00 in 174 W/m2
15:14 78.3 °F 69.9 °F 30.07 in WSW 0.3 mph 6 mph 75.4% 0.00 in 111 W/m2
15:19 77.9 °F 69.7 °F 30.07 in SW 0.2 mph 6 mph 75.9% 0.00 in 142 W/m2
15:24 77.7 °F 69.8 °F 30.06 in Calm   6 mph 76.7% 0.00 in 139 W/m2
15:29 77.5 °F 69.8 °F 30.06 in SW 0.2 mph 6 mph 77.3% 0.00 in 132 W/m2
15:34 77.3 °F 69.3 °F 30.06 in SW 0.2 mph 6 mph 76.5% 0.00 in 190 W/m2
15:39 77.1 °F 69.6 °F 30.06 in Calm   3 mph 77.5% 0.00 in 185 W/m2
15:44 77.1 °F 69.2 °F 30.06 in SW 0.3 mph 3 mph 76.8% 0.00 in 197 W/m2
15:49 77 °F 68.8 °F 30.06 in SW 0.4 mph 3 mph 75.8% 0.00 in 186 W/m2
15:54 77 °F 68.8 °F 30.06 in SW 0.3 mph 3 mph 75.8% 0.00 in 153 W/m2
15:59 77 °F 68.7 °F 30.06 in Calm   3 mph 75.7% 0.00 in 114 W/m2
16:00 77 °F 68.9 °F 30.06 in Calm   3 mph 76% 0.00 in 113 W/m2
16:09 77 °F 69 °F 30.06 in Calm     76.4% 0.00 in 155 W/m2
16:14 77.1 °F 69.3 °F 30.06 in SW 0.3 mph 4 mph 76.9% 0.00 in 139 W/m2
16:19 77.1 °F 69 °F 30.06 in Calm   4 mph 76% 0.00 in 128 W/m2
16:24 77 °F 69 °F 30.06 in Calm   4 mph 76.2% 0.00 in 54 W/m2
16:29 76.9 °F 68.8 °F 30.06 in Calm   4 mph 76.2% 0.00 in 49 W/m2
16:34 76.7 °F 68.7 °F 30.05 in Calm   4 mph 76.2% 0.00 in 97 W/m2
16:39 76.7 °F 68.9 °F 30.05 in Calm     77% 0.00 in 111 W/m2
16:44 76.7 °F 68.9 °F 30.06 in Calm     77% 0.00 in 98 W/m2
16:49 76.7 °F 68.9 °F 30.06 in Calm     77% 0.00 in 76 W/m2
16:54 76.6 °F 68.7 °F 30.06 in Calm     76.7% 0.00 in 39 W/m2
16:59 76.4 °F 68.6 °F 30.06 in Calm     77% 0.00 in 77 W/m2
17:04 76.3 °F 69 °F 30.06 in Calm     78.1% 0.00 in 77 W/m2
17:09 76.2 °F 68.8 °F 30.06 in Calm     78% 0.00 in 49 W/m2
17:14 76 °F 68.7 °F 30.06 in Calm     78% 0.00 in 62 W/m2
17:19 76 °F 68.8 °F 30.06 in SW 0.2 mph 2 mph 78.4% 0.00 in 62 W/m2
17:24 75.9 °F 68.5 °F 30.07 in Calm   2 mph 78% 0.00 in 35 W/m2
17:29 75.8 °F 68.8 °F 30.06 in Calm   2 mph 78.9% 0.00 in 67 W/m2
17:34 75.7 °F 68.7 °F 30.06 in Calm   2 mph 79% 0.00 in 74 W/m2
17:39 75.7 °F 68.8 °F 30.06 in Calm     79.2% 0.00 in 65 W/m2
17:44 75.7 °F 69.1 °F 30.06 in Calm     80% 0.00 in 42 W/m2
17:49 75.7 °F 69.1 °F 30.06 in Calm     80% 0.00 in 53 W/m2
17:54 75.6 °F 69 °F 30.06 in Calm     80% 0.00 in 39 W/m2
17:59 75.6 °F 69 °F 30.06 in SW 0.1 mph 1 mph 80% 0.00 in 26 W/m2
18:04 75.5 °F 68.9 °F 30.07 in Calm   1 mph 80% 0.00 in 14 W/m2
18:09 75.4 °F 68.9 °F 30.07 in Calm     80.3% 0.00 in 30 W/m2
18:14 75.4 °F 69.1 °F 30.07 in Calm     81% 0.00 in 32 W/m2
18:19 75.3 °F 69 °F 30.07 in Calm     81% 0.00 in 16 W/m2
18:24 75.2 °F 69 °F 30.07 in Calm     81% 0.00 in 19 W/m2
18:29 75.1 °F 69 °F 30.07 in Calm     81.3% 0.00 in 21 W/m2
18:34 75 °F 69.1 °F 30.07 in Calm     82% 0.00 in 19 W/m2
18:39 74.9 °F 69 °F 30.07 in Calm     82% 0.00 in 11 W/m2
18:44 74.8 °F 68.9 °F 30.07 in Calm     82% 0.00 in 12 W/m2
18:49 74.7 °F 69 °F 30.07 in Calm     82.4% 0.00 in 11 W/m2
18:54 74.6 °F 69.1 °F 30.07 in Calm     83% 0.00 in 14 W/m2
18:59 74.5 °F 69 °F 30.07 in Calm     83% 0.00 in 12 W/m2
19:04 74.5 °F 69 °F 30.07 in Calm     83% 0.00 in 9 W/m2
19:09 74.4 °F 68.9 °F 30.07 in Calm     83% 0.00 in 9 W/m2
19:14 74.4 °F 68.9 °F 30.07 in Calm     83% 0.00 in 14 W/m2
19:19 74.3 °F 68.8 °F 30.07 in Calm     83% 0.00 in 12 W/m2
19:24 74.2 °F 68.7 °F 30.07 in Calm     83% 0.00 in 5 W/m2
19:29 74.2 °F 68.7 °F 30.07 in Calm     83% 0.00 in 5 W/m2
19:34 74.1 °F 68.8 °F 30.07 in Calm     83.4% 0.00 in 0 W/m2
19:39 74.1 °F 68.8 °F 30.07 in Calm     83.6% 0.00 in 0 W/m2
19:44 74 °F 68.6 °F 30.07 in NW 2.5 mph 10 mph 83.4% 0.00 in 0 W/m2
19:49 73.4 °F 67.8 °F 30.07 in NNW 0.4 mph 10 mph 82.7% 0.00 in 0 W/m2
19:54 72.7 °F 67.3 °F 30.07 in NNW 0.9 mph 10 mph 83.2% 0.00 in 0 W/m2
19:59 72.1 °F 67.1 °F 30.07 in NNW 0.4 mph 10 mph 84% 0.00 in 0 W/m2
20:00 71.9 °F 66.8 °F 30.07 in Calm   10 mph 84% 0.00 in 0 W/m2
20:09 71.2 °F 66.4 °F 30.08 in North 0.3 mph 4 mph 85% 0.00 in 0 W/m2
20:14 70.8 °F 66.4 °F 30.08 in North 0.3 mph 4 mph 86% 0.00 in 0 W/m2
20:19 70.4 °F 66.1 °F 30.07 in ENE 1.2 mph 6 mph 86.3% 0.00 in 0 W/m2
20:24 69.9 °F 65.9 °F 30.07 in ENE 0.5 mph 6 mph 87.1% 0.00 in 0 W/m2
20:29 69.5 °F 65.8 °F 30.07 in ENE 1 mph 6 mph 88% 0.00 in 0 W/m2
20:34 69.3 °F 65.6 °F 30.07 in ENE 0.2 mph 6 mph 88% 0.00 in 0 W/m2
20:39 69 °F 65.4 °F 30.07 in NNE 0.6 mph 6 mph 88.2% 0.00 in 0 W/m2
20:44 68.9 °F 65.3 °F 30.07 in NNE 0.2 mph 6 mph 88.2% 0.00 in 0 W/m2
20:49 68.7 °F 65 °F 30.07 in NNE 0.2 mph 6 mph 88% 0.00 in 0 W/m2
20:54 68.5 °F 64.9 °F 30.07 in NE 0.4 mph 6 mph 88% 0.00 in 0 W/m2
20:59 68.5 °F 64.8 °F 30.07 in Calm   6 mph 88% 0.00 in 0 W/m2
21:04 68.4 °F 64.7 °F 30.06 in Calm   6 mph 88% 0.00 in 0 W/m2
21:09 68.3 °F 64.7 °F 30.07 in Calm     88.2% 0.00 in 0 W/m2
21:14 68.3 °F 65 °F 30.07 in Calm   1 mph 89% 0.00 in 0 W/m2
21:19 68.3 °F 64.8 °F 30.07 in Calm   1 mph 88.5% 0.00 in 0 W/m2
21:24 68.3 °F 64.8 °F 30.07 in Calm   1 mph 88.4% 0.00 in 0 W/m2
21:29 68.3 °F 64.9 °F 30.08 in Calm   1 mph 89% 0.00 in 0 W/m2
21:34 68.3 °F 64.9 °F 30.08 in Calm   1 mph 89% 0.00 in 0 W/m2
21:39 68.3 °F 65 °F 30.08 in NE 0.2 mph 3 mph 89% 0.00 in 0 W/m2
21:44 68.3 °F 65 °F 30.08 in Calm   3 mph 89% 0.00 in 0 W/m2
21:49 68.3 °F 64.9 °F 30.08 in Calm   3 mph 89% 0.00 in 0 W/m2
21:54 68.2 °F 64.9 °F 30.08 in Calm   3 mph 89% 0.00 in 0 W/m2
21:59 68.2 °F 64.8 °F 30.08 in NE 0.2 mph 4 mph 89% 0.00 in 0 W/m2
22:04 68.2 °F 64.8 °F 30.08 in Calm   4 mph 89% 0.00 in 0 W/m2
22:09 68.1 °F 64.7 °F 30.08 in NE 0.3 mph 4 mph 89% 0.00 in 0 W/m2
22:14 68 °F 64.6 °F 30.08 in North 1.3 mph 5 mph 89% 0.00 in 0 W/m2
22:19 67.9 °F 64.5 °F 30.08 in Calm   5 mph 89% 0.00 in 0 W/m2
22:24 67.8 °F 64.6 °F 30.08 in Calm   5 mph 89.5% 0.00 in 0 W/m2
22:29 67.8 °F 64.7 °F 30.09 in Calm   5 mph 90% 0.00 in 0 W/m2
22:34 67.7 °F 64.7 °F 30.09 in North 0.5 mph 5 mph 90% 0.00 in 0 W/m2
22:39 67.7 °F 64.7 °F 30.09 in North 0.4 mph 5 mph 90% 0.00 in 0 W/m2
22:44 67.7 °F 64.7 °F 30.09 in North 0.3 mph 5 mph 90% 0.00 in 0 W/m2
22:49 67.7 °F 64.6 °F 30.09 in North 0.1 mph 5 mph 90% 0.00 in 0 W/m2
22:54 67.6 °F 64.6 °F 30.09 in Calm   5 mph 90% 0.00 in 0 W/m2
22:59 67.6 °F 64.6 °F 30.09 in NNE 0.2 mph 5 mph 90% 0.00 in 0 W/m2
23:04 67.6 °F 64.7 °F 30.08 in NNE 0.2 mph 5 mph 90.5% 0.00 in 0 W/m2
23:09 67.5 °F 64.5 °F 30.08 in Calm   3 mph 90% 0.00 in 0 W/m2
23:14 67.5 °F 64.8 °F 30.08 in Calm   3 mph 90.9% 0.00 in 0 W/m2
23:19 67.5 °F 64.8 °F 30.09 in Calm   3 mph 91% 0.00 in 0 W/m2
23:24 67.5 °F 64.8 °F 30.09 in Calm   3 mph 91% 0.00 in 0 W/m2
23:29 67.5 °F 64.8 °F 30.09 in Calm   3 mph 91% 0.00 in 0 W/m2
23:34 67.5 °F 64.8 °F 30.09 in Calm   3 mph 91% 0.00 in 0 W/m2
23:39 67.5 °F 64.8 °F 30.09 in NNE 0.1 mph 2 mph 91% 0.00 in 0 W/m2
23:44 67.6 °F 64.9 °F 30.09 in Calm   2 mph 91% 0.00 in 0 W/m2
23:49 67.6 °F 64.9 °F 30.08 in Calm   2 mph 91% 0.00 in 0 W/m2
23:54 67.6 °F 64.9 °F 30.08 in Calm   2 mph 91% 0.00 in 0 W/m2
23:59 67.5 °F 64.8 °F 30.08 in NNE 0.1 mph 2 mph 91% 0.00 in 0 W/m2
Hartford County Weather
Compliments of Weather Underground - 4 mb